createdAt,value
2023-10-06T00:04:02.665Z,100.0
2023-10-06T00:09:02.232Z,100.0
2023-10-06T00:14:02.347Z,100.0
2023-10-06T00:19:02.228Z,100.0
2023-10-06T00:24:02.248Z,100.0
2023-10-06T00:29:02.297Z,100.0
2023-10-06T00:34:02.246Z,100.0
2023-10-06T00:39:02.243Z,100.0
2023-10-06T00:44:02.288Z,100.0
2023-10-06T00:49:02.244Z,100.0
2023-10-06T00:54:02.267Z,100.0
2023-10-06T00:59:02.332Z,100.0
2023-10-06T01:04:03.154Z,100.0
2023-10-06T01:09:02.262Z,100.0
2023-10-06T01:14:02.283Z,100.0
2023-10-06T01:19:02.269Z,100.0
2023-10-06T01:24:02.274Z,100.0
2023-10-06T01:29:02.285Z,100.0
2023-10-06T01:34:02.272Z,100.0
2023-10-06T01:39:02.276Z,100.0
2023-10-06T01:44:02.301Z,100.0
2023-10-06T01:49:02.295Z,100.0
2023-10-06T01:54:02.271Z,100.0
2023-10-06T01:59:02.306Z,100.0
2023-10-06T02:04:02.272Z,100.0
2023-10-06T02:09:02.288Z,100.0
2023-10-06T02:14:02.294Z,100.0
2023-10-06T02:19:02.280Z,100.0
2023-10-06T02:24:02.279Z,100.0
2023-10-06T02:29:02.287Z,100.0
2023-10-06T02:34:02.285Z,100.0
2023-10-06T02:39:02.287Z,100.0
2023-10-06T02:44:02.319Z,100.0
2023-10-06T02:49:02.289Z,100.0
2023-10-06T02:54:02.308Z,100.0
2023-10-06T02:59:02.335Z,100.0
2023-10-06T03:04:02.297Z,100.0
2023-10-06T03:09:02.302Z,100.0
2023-10-06T03:14:02.324Z,100.0
2023-10-06T03:19:02.293Z,100.0
2023-10-06T03:24:02.312Z,100.0
2023-10-06T03:29:02.347Z,100.0
2023-10-06T03:34:02.303Z,100.0
2023-10-06T03:39:02.296Z,100.0
2023-10-06T03:44:02.339Z,100.0
2023-10-06T03:49:02.310Z,100.0
2023-10-06T03:54:02.309Z,100.0
2023-10-06T03:59:02.347Z,100.0
2023-10-06T04:04:02.341Z,100.0
2023-10-06T04:09:02.317Z,100.0
2023-10-06T04:19:02.347Z,100.0
2023-10-06T04:24:02.319Z,100.0
2023-10-06T04:29:02.345Z,100.0
2023-10-06T04:34:02.365Z,100.0
2023-10-06T04:39:02.357Z,100.0
2023-10-06T04:44:02.347Z,100.0
2023-10-06T04:49:02.344Z,100.0
2023-10-06T04:54:02.389Z,100.0
2023-10-06T04:59:02.341Z,100.0
2023-10-06T05:04:02.369Z,100.0
2023-10-06T05:09:02.335Z,100.0
2023-10-06T05:14:02.359Z,100.0
2023-10-06T05:19:02.339Z,100.0
2023-10-06T05:24:02.337Z,100.0
2023-10-06T05:29:02.397Z,100.0
2023-10-06T05:34:02.344Z,100.0
2023-10-06T05:39:02.352Z,100.0
2023-10-06T05:44:02.379Z,100.0
2023-10-06T05:49:02.349Z,100.0
2023-10-06T05:54:02.348Z,100.0
2023-10-06T05:59:02.398Z,100.0
2023-10-06T06:04:02.354Z,100.0
2023-10-06T06:09:02.354Z,100.0
2023-10-06T06:14:15.334Z,100.0
2023-10-06T06:19:02.357Z,100.0
2023-10-06T06:24:02.376Z,100.0
2023-10-06T06:29:02.427Z,100.0
2023-10-06T06:34:02.358Z,100.0
2023-10-06T06:39:02.363Z,100.0
2023-10-06T06:44:02.454Z,100.0
2023-10-06T06:49:02.368Z,100.0
2023-10-06T06:54:02.368Z,100.0
2023-10-06T06:59:02.590Z,100.0
2023-10-06T07:04:03.082Z,100.0
2023-10-06T07:09:02.373Z,100.0
2023-10-06T07:14:02.416Z,100.0
2023-10-06T07:19:02.377Z,100.0
2023-10-06T07:24:02.390Z,100.0
2023-10-06T07:29:02.424Z,100.0
2023-10-06T07:34:02.392Z,100.0
2023-10-06T07:39:02.395Z,100.0
2023-10-06T07:44:02.428Z,100.0
2023-10-06T07:49:02.393Z,100.0
2023-10-06T07:54:02.406Z,100.0
2023-10-06T07:59:02.418Z,100.0
2023-10-06T08:04:02.407Z,100.0
2023-10-06T08:09:02.406Z,100.0
2023-10-06T08:14:02.456Z,100.0
2023-10-06T08:19:02.422Z,100.0
2023-10-06T08:24:02.408Z,100.0
2023-10-06T08:29:02.466Z,100.0
2023-10-06T08:34:03.512Z,100.0
2023-10-06T08:39:02.420Z,100.0
2023-10-06T08:44:02.455Z,100.0
2023-10-06T08:54:02.432Z,99.0
2023-10-06T08:59:02.459Z,99.0
2023-10-06T09:04:02.453Z,98.0
2023-10-06T09:09:02.455Z,97.5
2023-10-06T09:14:03.115Z,97.5
2023-10-06T09:19:02.444Z,97.5
2023-10-06T09:24:02.454Z,97.0
2023-10-06T09:29:02.616Z,97.5
2023-10-06T09:34:02.458Z,96.5
2023-10-06T09:39:02.461Z,96.0
2023-10-06T09:44:02.546Z,96.0
2023-10-06T09:49:02.498Z,95.0
2023-10-06T09:54:02.466Z,95.0
2023-10-06T09:59:02.552Z,95.0
2023-10-06T10:04:02.686Z,94.5
2023-10-06T10:09:02.476Z,93.5
2023-10-06T10:14:04.455Z,92.5
2023-10-06T10:19:02.478Z,92.5
2023-10-06T10:24:35.629Z,92.0
2023-10-06T10:29:02.515Z,91.0
2023-10-06T10:34:14.822Z,90.0
2023-10-06T10:39:02.482Z,90.0
2023-10-06T10:44:18.604Z,89.0
2023-10-06T10:49:02.489Z,88.5
2023-10-06T10:54:02.495Z,88.0
2023-10-06T10:59:02.510Z,87.5
2023-10-06T11:04:02.505Z,86.5
2023-10-06T11:09:02.501Z,86.0
2023-10-06T11:14:04.192Z,86.0
2023-10-06T11:19:02.570Z,85.0
2023-10-06T11:24:02.509Z,84.0
2023-10-06T11:29:02.543Z,84.5
2023-10-06T11:34:02.511Z,84.5
2023-10-06T11:39:02.516Z,84.5
2023-10-06T11:44:04.171Z,82.5
2023-10-06T11:49:02.528Z,83.0
2023-10-06T11:54:02.524Z,82.5
2023-10-06T11:59:02.578Z,83.5
2023-10-06T12:04:02.763Z,83.0
2023-10-06T12:09:02.532Z,82.0
2023-10-06T12:19:02.544Z,82.5
2023-10-06T12:24:02.550Z,82.5
2023-10-06T12:29:02.582Z,82.5
2023-10-06T12:34:02.573Z,82.5
2023-10-06T12:39:02.542Z,82.5
2023-10-06T12:44:04.122Z,80.5
2023-10-06T12:49:02.543Z,80.5
2023-10-06T12:54:02.562Z,81.0
2023-10-06T12:59:02.590Z,80.0
2023-10-06T13:04:02.717Z,79.5
2023-10-06T13:09:02.561Z,79.5
2023-10-06T13:14:02.601Z,79.0
2023-10-06T13:19:02.596Z,78.5
2023-10-06T13:24:05.636Z,78.0
2023-10-06T13:29:02.605Z,77.0
2023-10-06T13:34:02.687Z,77.0
2023-10-06T13:39:02.573Z,77.0
2023-10-06T13:44:02.666Z,76.5
2023-10-06T13:49:02.638Z,76.0
2023-10-06T13:54:04.535Z,75.0
2023-10-06T13:59:02.598Z,74.5
2023-10-06T14:04:02.679Z,73.5
2023-10-06T14:09:02.586Z,74.0
2023-10-06T14:14:02.623Z,73.0
2023-10-06T14:19:02.604Z,72.5
2023-10-06T14:24:04.645Z,73.5
2023-10-06T14:29:02.607Z,74.0
2023-10-06T14:34:02.613Z,74.0
2023-10-06T14:39:02.612Z,74.0
2023-10-06T14:44:02.703Z,74.0
2023-10-06T14:49:02.607Z,73.5
2023-10-06T14:54:02.645Z,74.0
2023-10-06T14:59:02.646Z,73.5
2023-10-06T15:04:05.305Z,73.5
2023-10-06T15:09:02.617Z,74.0
2023-10-06T15:14:02.628Z,73.5
2023-10-06T15:19:02.616Z,74.0
2023-10-06T15:24:02.621Z,74.5
2023-10-06T15:29:02.632Z,75.0
2023-10-06T15:34:02.616Z,74.0
2023-10-06T15:39:02.624Z,74.0
2023-10-06T15:44:05.011Z,74.5
2023-10-06T15:49:02.631Z,74.5
2023-10-06T15:54:02.641Z,75.0
2023-10-06T15:59:02.686Z,75.0
2023-10-06T16:04:02.634Z,75.5
2023-10-06T16:09:02.639Z,75.5
2023-10-06T16:14:02.650Z,75.5
2023-10-06T16:19:02.690Z,76.0
2023-10-06T16:24:02.681Z,76.5
2023-10-06T16:29:02.682Z,77.0
2023-10-06T16:34:02.639Z,77.0
2023-10-06T16:39:02.688Z,77.5
2023-10-06T16:44:02.666Z,78.0
2023-10-06T16:49:04.562Z,78.5
2023-10-06T16:54:02.646Z,79.0
2023-10-06T16:59:02.678Z,79.5
2023-10-06T17:04:02.886Z,80.0
2023-10-06T17:09:02.678Z,80.0
2023-10-06T17:14:02.697Z,80.5
2023-10-06T17:19:02.665Z,80.5
2023-10-06T17:24:02.665Z,81.0
2023-10-06T17:29:02.732Z,81.5
2023-10-06T17:34:02.658Z,81.5
2023-10-06T17:39:02.689Z,82.0
2023-10-06T17:44:02.716Z,82.0
2023-10-06T17:49:02.725Z,82.5
2023-10-06T17:54:02.711Z,83.0
2023-10-06T17:59:02.665Z,83.5
2023-10-06T18:04:02.766Z,84.0
2023-10-06T18:09:02.680Z,84.0
2023-10-06T18:14:02.708Z,84.5
2023-10-06T18:19:02.672Z,85.0
2023-10-06T18:24:02.680Z,85.0
2023-10-06T18:29:02.694Z,85.5
2023-10-06T18:34:02.688Z,86.0
2023-10-06T18:39:02.710Z,86.0
2023-10-06T18:44:02.692Z,86.5
2023-10-06T18:49:02.681Z,86.5
2023-10-06T18:54:02.694Z,87.0
2023-10-06T18:59:02.694Z,87.0
2023-10-06T19:04:02.740Z,87.5
2023-10-06T19:09:02.696Z,88.0
2023-10-06T19:14:02.690Z,88.0
2023-10-06T19:19:02.703Z,88.5
2023-10-06T19:24:02.831Z,89.0
2023-10-06T19:29:02.725Z,89.0
2023-10-06T19:34:02.700Z,89.5
2023-10-06T19:39:02.696Z,90.0
2023-10-06T19:44:02.740Z,90.5
2023-10-06T19:49:02.703Z,90.5
2023-10-06T19:59:02.719Z,91.0
2023-10-06T20:04:02.756Z,91.0
2023-10-06T20:09:02.717Z,91.5
2023-10-06T20:14:02.717Z,91.5
2023-10-06T20:19:02.724Z,92.0
2023-10-06T20:24:02.726Z,92.0
2023-10-06T20:29:02.800Z,92.0
2023-10-06T20:34:02.722Z,92.5
2023-10-06T20:39:02.722Z,92.5
2023-10-06T20:44:02.729Z,93.0
2023-10-06T20:49:02.745Z,93.5
2023-10-06T20:54:02.734Z,93.5
2023-10-06T20:59:02.799Z,94.0
2023-10-06T21:04:02.778Z,94.5
2023-10-06T21:09:02.739Z,94.5
2023-10-06T21:14:02.808Z,94.5
2023-10-06T21:19:02.738Z,95.0
2023-10-06T21:24:02.739Z,95.0
2023-10-06T21:29:02.763Z,95.5
2023-10-06T21:34:02.742Z,95.5
2023-10-06T21:39:02.736Z,96.0
2023-10-06T21:44:02.788Z,96.0
2023-10-06T21:49:02.746Z,96.0
2023-10-06T21:54:02.743Z,96.5
2023-10-06T21:59:02.765Z,96.5
2023-10-06T22:04:02.859Z,96.5
2023-10-06T22:09:02.752Z,97.0
2023-10-06T22:14:02.844Z,97.0
2023-10-06T22:19:02.754Z,97.0
2023-10-06T22:24:02.767Z,97.5
2023-10-06T22:29:02.819Z,97.5
2023-10-06T22:34:02.769Z,97.5
2023-10-06T22:39:02.771Z,98.0
2023-10-06T22:44:02.805Z,98.0
2023-10-06T22:49:02.769Z,98.0
2023-10-06T22:54:02.783Z,98.5
2023-10-06T22:59:02.820Z,98.5
2023-10-06T23:04:02.852Z,99.0
2023-10-06T23:09:02.770Z,99.0
2023-10-06T23:14:02.795Z,99.5
2023-10-06T23:19:02.796Z,99.5
2023-10-06T23:24:02.778Z,99.5
2023-10-06T23:29:02.844Z,100.0
2023-10-06T23:34:02.810Z,100.0
2023-10-06T23:39:02.783Z,100.0
2023-10-06T23:44:02.820Z,100.0
2023-10-06T23:49:02.806Z,100.0
2023-10-06T23:54:02.787Z,100.0
2023-10-06T23:59:02.827Z,100.0
